Tiempo atmosférico en la estación meteorológica de Cabo Busto, Asturias (63 m.)

Fecha
DESCASC
Temp. máxima en grados centígrados (hora)
DESCASC
Temp. mínima en grados centígrados (hora)
DESCASC
Temp. media en grados centígrados
DESCASC
Racha de viento máxima en m/sg (hora)
DESCASC
Velocidad máxima media en intervalos de 10 minutos(hora)
DESCASC
Precipitaciones diarias en mm
DESCASC
Precipitaciones de 00:00 a 06:00 en mm
DESCASC
Precipitaciones de 06:00 a 12:00 en mm
DESCASC
Precipitaciones de 12:00 a 18:00 en mm
DESCASC
Precipitaciones de 18:00 a 24:00 en mm
DESCASC
22-10-2017 18.7 (15:00) 10.8 (23:59) 14.8 12.78 (03:50) 7.22 (00:10) 0 0 0 0 0
21-10-2017 19 (13:20) 14.3 (23:40) 16.7 26.39 (00:30) 14.44 (03:20) 0.6 0.6 0 0 0
20-10-2017 25.5 (17:50) 13.8 (09:10) 19.7 21.67 (18:10) 15.28 (23:30) 0 0 0 0 0
19-10-2017 20.8 (14:00) 10.5 (00:00) 15.6 16.39 (23:10) 10.83 (22:00) 0 0 0 0 0
18-10-2017 17.9 (15:20) 11.8 (00:00) 14.8 10 (17:30) 6.11 (10:30) 0.2 0.2 0 0 0
17-10-2017 19.6 (15:30) 14.8 (00:00) 17.2 11.94 (14:00) 9.17 (14:20) 1.4 0 1.4 0 0
16-10-2017 26.8 (00:40) 16.7 (00:00) 21.8 22.78 (08:10) 14.17 (08:10) 0 0 0 0 0
15-10-2017 30 (17:50) 18.1 (00:00) 24.1 13.33 (08:30) 8.33 (08:30) 0 0 0 0 0
14-10-2017 20.1 (21:50) 12.8 (00:00) 16.5 9.17 (23:40) 6.94 (23:40) 0 0 0 0 0
13-10-2017 19.7 (17:00) 12.9 (00:00) 16.3 7.22 (08:00) 5.28 (07:20) 0 0 0 0 0
12-10-2017 19.1 (16:40) 12.4 (00:00) 15.8 8.61 (08:40) 6.11 (08:40) 0 0 0 0 0
11-10-2017 22 (14:40) 11.8 (00:00) 16.9 8.33 (06:00) 6.11 (04:30) 0 0 0 0 0
10-10-2017 19.4 (14:20) 10.4 (00:00) 14.9 8.61 (18:30) 6.11 (09:00) 0 0 0 0 0
09-10-2017 18.2 (14:30) 9.5 (00:00) 13.9 11.11 (15:50) 5.83 (16:20) 0 0 0 0 0
08-10-2017 18 (12:40) 9.2 (00:00) 13.6 12.78 (18:00) 6.94 (16:50) 0 0 0 0 0
07-10-2017 17.6 (14:40) 12.7 (00:00) 15.2 15.28 (15:10) 8.33 (00:20) 0 0 0 0 0
06-10-2017 19.3 (14:50) 16.4 (00:00) 17.8 16.67 (16:30) 8.89 (16:20) 0 0 0 0 0
05-10-2017 18.5 (00:20) 17.3 (00:00) 17.9 13.06 (19:20) 6.39 (19:40) 0.8 0 0.8 0 0
04-10-2017 20.1 (13:00) 18.4 (00:00) 19.3 16.39 (17:00) 7.5 (17:00) 0 0 0 0 0
03-10-2017 20.1 (16:40) 17.9 (00:00) 19 13.06 (23:59) 6.11 (17:50) 4.2 1.8 2.4 0 0
02-10-2017 23.6 (13:30) 18.2 (00:00) 20.9 6.39 (06:50) 3.89 (07:20) 0.2 0 0 0 0.2
01-10-2017 22.9 (16:00) 17.6 (00:00) 20.3 13.06 (03:00) 7.22 (02:50) 3.4 0 0 0 3.4
30-09-2017 19.9 (16:20) 14.6 (00:00) 17.3 6.39 (14:40) 4.44 (15:40) 0.6 0 0.6 0 0
29-09-2017 21.8 (14:20) 15 (00:00) 18.4 12.5 (16:20) 7.78 (16:00) 2.4 0 0 0 2.4
28-09-2017 23.1 (14:30) 16 (00:00) 19.6 8.06 (19:40) 5 (06:30) 0 0 0 0 0
27-09-2017 24.6 (12:30) 14.3 (00:00) 19.5 7.78 (03:20) 6.11 (08:00) 0 0 0 0 0
26-09-2017 20.4 (15:30) 12.3 (00:00) 16.3 9.44 (16:30) 5.28 (04:40) 0 0 0 0 0
25-09-2017 21.4 (12:40) 14.9 (00:00) 18.1 11.67 (13:40) 8.33 (14:40) 0 0 0 0 0
24-09-2017 21.5 (14:10) 14 (00:00) 17.8 8.33 (21:20) 5.83 (07:00) 4.4 0 0 0 4.4
23-09-2017 22.9 (13:00) 13.4 (00:00) 18.1 9.44 (04:00) 6.39 (03:20) 0 0 0 0 0

Gráficas

Temp. máximas Temp. mínimas Temp. medias Precipitaciones Rachas de viento máximas Velocidades máximas media en intervalos de 10 minutos

Datos horarios

Fecha y hora oficial Temperatura (ºC) Velocidad del viento (km/h) Dirección del viento Racha (km/h) Dirección de racha Precipitación (mm) Presión (hPa) Tendencia (hPa) Humedad (%)
2017-10-22 23:00:00 11.4 20 Sudeste 26 Sudeste 0 1020.8 0 81
2017-10-22 22:00:00 11.9 18 Sudeste 22 Sudeste 0 1021.2 0.6 81
2017-10-22 21:00:00 12.4 11 Sudeste 15 Sudeste 0 1021.3 0.5 79
2017-10-22 20:00:00 14.1 7 Sudeste 12 Sudeste 0 1020.8 0 70
2017-10-22 19:00:00 16 4 Noroeste 15 Oeste 0 1020.6 -0.6 68
2017-10-22 18:00:00 16.8 8 Noroeste 23 Noroeste 0 1020.8 -0.7 62
2017-10-22 17:00:00 17.2 16 Noroeste 29 Noroeste 0 1020.8 -1.3 63
2017-10-22 16:00:00 17.3 22 Noroeste 28 Noroeste 0 1021.2 -1.5 58
2017-10-22 15:00:00 17.5 16 Oeste 25 Oeste 0 1021.5 -1.4 57
2017-10-22 14:00:00 17.4 10 Oeste 24 Oeste 0 1022.1 -0.6 60
2017-10-22 13:00:00 16.3 15 Oeste 25 Oeste 0 1022.7 0.2 60
2017-10-22 12:00:00 15.3 14 Oeste 26 Oeste 0 1022.9 0.9 62
2017-10-22 11:00:00 14.2 6 Sudoeste 19 Sur 0 1022.7 0.9 65
2017-10-22 10:00:00 12.5 14 Sur 20 Sur 0 1022.5 0.7 67
2017-10-22 09:00:00 14.2 15 Oeste 30 Oeste 0 1022 0.6 62
2017-10-22 08:00:00 14.4 15 Oeste 36 Oeste 0 1021.8 0.6 61
2017-10-22 07:00:00 14.5 22 Oeste 33 Oeste 0 1021.8 0.5 59
2017-10-22 06:00:00 14.3 22 Oeste 35 Oeste 0 1021.4 0.3 62
2017-10-22 05:00:00 13.8 16 Oeste 32 Oeste 0 1021.2 -0.2 64
2017-10-22 04:00:00 14.1 19 Oeste 46 Oeste 0 1021.3 -0.3 62
2017-10-22 03:00:00 14.1 19 Sudoeste 37 Oeste 0 1021.1 -0.4 64
2017-10-22 02:00:00 14.5 21 Oeste 36 Oeste 0 1021.4 0.4 62
2017-10-22 01:00:00 14.5 20 Oeste 37 Sudoeste 0 1021.6 0.7 63
2017-10-22 00:00:00 14.4 23 Oeste 39 Noroeste 0 1021.5 1 64
2017-10-21 23:00:00 14.6 20 Oeste 46 Noroeste 0 1021 1.3 73
2017-10-21 22:00:00 14.8 33 Oeste 57 Oeste 0 1020.9 2 70
2017-10-21 21:00:00 15.1 24 Oeste 81 Oeste 0 1020.5 2.1 65
2017-10-21 20:00:00 15.7 30 Oeste 64 Noroeste 0 1019.7 1.3 67
2017-10-21 19:00:00 16.1 38 Oeste 63 Oeste 0 1018.9 1 62
2017-10-21 18:00:00 17 33 Oeste 60 Oeste 0 1018.4 1.1 62
2017-10-21 17:00:00 16.7 24 Oeste 54 Oeste 0 1018.4 1.5 61
2017-10-21 16:00:00 16.2 33 Oeste 77 Oeste 0 1017.9 1 64
2017-10-21 15:00:00 17.1 36 Oeste 68 Oeste 0 1017.3 0.8 63
2017-10-21 14:00:00 18.7 40 Oeste 78 Noroeste 0 1016.9 0.6 43
2017-10-21 13:00:00 18.7 35 Oeste 69 Oeste 0 1016.9 1.4 48
2017-10-21 12:00:00 18 43 Oeste 59 Oeste 0 1016.5 1.6 54
2017-10-21 11:00:00 17.4 36 Oeste 51 Oeste 0 1016.3 1.9 54
2017-10-21 10:00:00 16 30 Oeste 49 Oeste 0 1015.5 1.7 57
2017-10-21 09:00:00 15.9 30 Oeste 50 Oeste 0 1014.9 2.2 58
2017-10-21 08:00:00 16.1 29 Oeste 49 Oeste 0 1014.4 2.2 57
2017-10-21 07:00:00 16 33 Oeste 57 Oeste 0 1013.8 2.2 56
2017-10-21 06:00:00 16.4 39 Oeste 59 Oeste 0 1012.7 1.8 57
2017-10-21 05:00:00 16.6 45 Oeste 64 Oeste 0 1012.2 2.4 57
2017-10-21 04:00:00 16.9 50 Oeste 70 Oeste 0 1011.6 2.3 64
2017-10-21 03:00:00 16.8 41 Oeste 64 Oeste 0 1010.9 2.5 75
2017-10-21 02:00:00 17.3 43 Oeste 58 Oeste 0.2 1009.8 2.8 73
2017-10-21 01:00:00 16.1 35 Oeste 95 Oeste 0.4 1009.3 4 88
2017-10-21 00:00:00 17.3 31 Oeste 76 Noroeste 0 1008.4 2.6 81
2017-10-20 23:00:00 22.5 30 Oeste 64 Oeste 0 1007 2 52
2017-10-20 22:00:00 23.6 31 Sudoeste 73 Oeste 0 1005.3 0.6 46
2017-10-20 21:00:00 23.2 30 Oeste 58 Oeste 0 1005.8 1 51
2017-10-20 20:00:00 23.6 45 Oeste 72 Sudoeste 0 1005 -0.9 52
2017-10-20 19:00:00 23.4 43 Oeste 78 Oeste 0 1004.7 -1.5 54
2017-10-20 18:00:00 25.4 44 Oeste 69 Sudoeste 0 1004.8 -1.9 46
2017-10-20 17:00:00 20.5 13 Este 23 Este 0 1005.9 -1.8 69
2017-10-20 16:00:00 20.3 13 Este 26 Este 0 1006.2 -2.1 70
2017-10-20 15:00:00 20.2 12 Este 22 Este 0 1006.7 -1.6 66
2017-10-20 14:00:00 19.5 15 Este 21 Sudeste 0 1007.7 -0.6 74
2017-10-20 13:00:00 19.2 10 Este 19 Este 0 1008.3 0.3 72
2017-10-20 12:00:00 19.6 10 Este 15 Este 0 1008.3 0.9 69
2017-10-20 11:00:00 17.8 8 Sur 17 Sudeste 0 1008.3 1.1 78
2017-10-20 10:00:00 15.2 12 Sudeste 17 Sudeste 0 1008 1 86
2017-10-20 09:00:00 13.9 9 Sudeste 18 Sudeste 0 1007.4 0.3 88
2017-10-20 08:00:00 14.7 12 Sudeste 21 Sudeste 0 1007.2 -0.1 86
2017-10-20 07:00:00 14.8 12 Sudeste 19 Sudeste 0 1007 0.2 87
2017-10-20 06:00:00 15.3 10 Sudeste 14 Sudeste 0 1007.1 0.1 87
2017-10-20 05:00:00 15.5 4 Sur 8 Sur 0 1007.3 0.5 85
2017-10-20 04:00:00 16.2 5 Sur 22 Oeste 0 1006.8 0.1 84
2017-10-20 03:00:00 16.5 17 Oeste 25 Oeste 0 1007 1.1 85
2017-10-20 02:00:00 16.5 14 Oeste 20 Oeste 0 1006.8 1.8 86
2017-10-20 01:00:00 16.4 11 Oeste 49 Oeste 0 1006.7 3.1 86
2017-10-20 00:00:00 16.7 26 Oeste 59 Oeste 0 1005.9 2.8 85
2017-10-19 23:00:00 18.6 24 Oeste 51 Oeste 0 1005 2.6 73
2017-10-19 22:00:00 19.2 39 Oeste 53 Oeste 0 1003.6 1.6 66
2017-10-19 21:00:00 19.1 32 Oeste 43 Oeste 0 1003.1 1.5 65
2017-10-19 20:00:00 19 12 Oeste 40 Oeste 0 1002.4 1.6 65
2017-10-19 19:00:00 19.2 10 Sudoeste 27 Oeste 0 1002 0.8 65
2017-10-19 18:00:00 19.3 9 Sur 40 Sudoeste 0 1001.6 0.4 66
2017-10-19 17:00:00 20.2 31 Oeste 49 Oeste 0 1000.8 -1.1 58
2017-10-19 16:00:00 19.6 14 Oeste 36 Oeste 0 1001.2 -1 64
2017-10-19 15:00:00 19.5 5 Sudeste 22 Sudoeste 0 1001.2 -1.5 62
2017-10-19 14:00:00 20.5 4 Oeste 15 Noroeste 0 1001.9 -0.9 57
2017-10-19 13:00:00 17.3 10 Sur 19 Sudeste 0 1002.2 -0.3 64
2017-10-19 12:00:00 14.9 14 Sudeste 19 Sudeste 0 1002.7 0.5 66
2017-10-19 11:00:00 13.6 10 Sur 17 Sudeste 0 1002.8 0.6 69
2017-10-19 10:00:00 12.7 15 Sudeste 21 Sudeste 0 1002.5 -0.2 70
2017-10-19 09:00:00 12.1 6 Sur 27 Sudeste 0 1002.2 -0.5 72
2017-10-19 08:00:00 11.4 20 Sudeste 34 Sudeste 0 1002.2 -0.9 75
2017-10-19 07:00:00 11.1 21 Sur 30 Sudeste 0 1002.7 -0.5 77
2017-10-19 06:00:00 10.7 18 Sur 30 Sudeste 0 1002.7 -0.6 79
2017-10-19 05:00:00 10.8 17 Sur 30 Sudeste 0 1003.1 -0.5 79
2017-10-19 04:00:00 10.6 21 Sur 27 Sur 0 1003.2 -0.5 81
2017-10-19 03:00:00 10.7 19 Sur 25 Sur 0 1003.3 -0.5 81
2017-10-19 02:00:00 11.6 15 Sur 22 Sudoeste 0 1003.6 -0.4 79
2017-10-19 01:00:00 11.4 16 Sur 24 Sur 0 1003.7 -0.3 82
2017-10-19 00:00:00 11.8 17 Sur 22 Sur 0 1003.8 -0.2 82
2017-10-18 23:00:00 12.3 18 Sur 22 Sur 0 1004 0.6 82
2017-10-18 22:00:00 13.9 12 Sur 27 Sur 0 1004 1.1 73
2017-10-18 21:00:00 14 12 Sur 20 Oeste 0 1004 1.4 80
2017-10-18 20:00:00 15.2 12 Oeste 17 Oeste 0 1003.4 1.1 76
2017-10-18 19:00:00 15.8 12 Oeste 22 Oeste 0 1002.9 0.6 73
2017-10-18 18:00:00 16.4 20 Oeste 36 Noroeste 0 1002.6 0 72
2017-10-18 17:00:00 16.4 12 Oeste 19 Noroeste 0 1002.3 -0.6 70
2017-10-18 16:00:00 16.8 5 Sudoeste 12 Oeste 0 1002.3 -0.8 68
2017-10-18 15:00:00 17.7 4 Norte 12 Nordeste 0 1002.6 -0.4 64
2017-10-18 14:00:00 16.7 3 Nordeste 10 Sudeste 0 1002.9 0.1 69
2017-10-18 13:00:00 15.6 4 Sudoeste 10 Sur 0 1003.1 0.6 72
2017-10-18 12:00:00 15.2 6 Sudoeste 22 Sudoeste 0 1003 0.9 72
2017-10-18 11:00:00 15.1 15 Sudoeste 29 Oeste 0 1002.8 0.8 70
2017-10-18 10:00:00 15.1 15 Oeste 26 Oeste 0 1002.5 0.8 71
2017-10-18 09:00:00 14.9 14 Sudoeste 26 Sudoeste 0 1002.1 -0.1 72
2017-10-18 08:00:00 14.3 13 Sudoeste 24 Sudoeste 0 1002 -0.9 82
2017-10-18 07:00:00 13.8 17 Sudeste 26 Sudeste 0 1001.7 -2 84
2017-10-18 06:00:00 13.8 13 Sudeste 18 Sudeste 0 1002.2 -1.7 85
2017-10-18 05:00:00 13.9 11 Sudeste 18 Sudeste 0.2 1002.9 -1.5 84
2017-10-18 04:00:00 14.3 8 Sudeste 15 Sudeste 0 1003.7 -1.2 82
2017-10-18 03:00:00 14.4 11 Sudeste 19 Sur 0 1003.9 -1 81
2017-10-18 02:00:00 14.8 11 Sur 17 Sudeste 0 1004.4 -1.1 80
2017-10-18 01:00:00 15.6 10 Sur 30 Sudeste 0 1004.9 -0.7 78
2017-10-18 00:00:00 15.6 22 Sudeste 32 Sudeste 0 1004.9 -0.8 76
2017-10-17 23:00:00 15.9 21 Sur 31 Sudeste 0 1005.5 -0.5 76
2017-10-17 22:00:00 15.7 17 Sudeste 30 Sudeste 0 1005.6 -0.2 78
2017-10-17 21:00:00 15.4 10 Este 32 Este 0 1005.7 -0.1 75
2017-10-17 20:00:00 16.6 19 Este 36 Este 0 1006 0.1 73
2017-10-17 19:00:00 17.2 15 Este 26 Este 0 1005.8 -0.2 73
2017-10-17 18:00:00 17.6 8 Este 23 Este 0 1005.8 -1.3 71
2017-10-17 17:00:00 18.1 4 Nordeste 33 Noroeste 0 1005.9 -1.4 70
2017-10-17 16:00:00 17.8 22 Noroeste 38 Noroeste 0 1006 -1.7 69
2017-10-17 15:00:00 18.7 10 Oeste 42 Oeste 0 1007.1 -0.7 65
2017-10-17 14:00:00 17.8 33 Oeste 43 Oeste 0 1007.3 -0.8 70
2017-10-17 13:00:00 17.3 8 Oeste 23 Oeste 0 1007.7 -0.1 85
2017-10-17 12:00:00 16.1 12 Oeste 28 Oeste 0 1007.8 0.5 86
2017-10-17 11:00:00 15.7 15 Oeste 31 Noroeste 0 1008.1 0.8 87
2017-10-17 10:00:00 15.6 7 Oeste 26 Sudeste 0.4 1007.8 0.3 87
2017-10-17 09:00:00 14.9 14 Sudeste 32 Sudoeste 1 1007.3 -0.6 85
2017-10-17 08:00:00 16 11 Sudoeste 17 Oeste 0 1007.3 -0.8 78
2017-10-17 07:00:00 15.6 12 Oeste 32 Oeste 0 1007.5 -1.6 81
2017-10-17 06:00:00 15.2 18 Oeste 23 Oeste 0 1007.9 -2.2 85
2017-10-17 05:00:00 15.3 5 Sudoeste 15 Sudeste 0 1008.1 -2.9 82
2017-10-17 04:00:00 15.1 10 Sudeste 18 Sudeste 0 1009.1 -2.7 82
2017-10-17 03:00:00 15.1 11 Sudeste 17 Sudeste 0 1010.1 -2.6 83
2017-10-17 02:00:00 16 6 Este 16 Este 0 1011 -2.2 81
2017-10-17 01:00:00 16.3 9 Este 16 Este 0 1011.8 -1.9 81
2017-10-17 00:00:00 16.9 8 Este 28 Este 0 1012.7 -1.6 81
2017-10-16 23:00:00 16.9 12 Este 23 Este 0 1013.2 -1.2 80
2017-10-16 22:00:00 17 7 Este 14 Nordeste 0 1013.7 -0.9 77
2017-10-16 21:00:00 17 6 Este 13 Este 0 1014.3 -0.7 73
2017-10-16 20:00:00 16.9 6 Este 11 Este 0 1014.4 -0.8 76
2017-10-16 19:00:00 16.7 6 Sudeste 8 Sudeste 0 1014.6 -0.5 76
2017-10-16 18:00:00 16.7 5 Sudeste 7 Sudeste 0 1015 -0.1 76
2017-10-16 17:00:00 17.1 3 Sudeste 7 Este 0 1015.2 0.4 74
2017-10-16 16:00:00 17.2 4 Este 8 Oeste 0 1015.1 0.6 72
2017-10-16 15:00:00 17.4 6 Oeste 24 Oeste 0 1015.1 0.9 70
2017-10-16 14:00:00 17.4 16 Oeste 32 Oeste 0 1014.8 1.8 71
2017-10-16 13:00:00 17.6 15 Oeste 34 Oeste 0 1014.5 2.2 72
2017-10-16 12:00:00 17.6 19 Oeste 45 Oeste 0 1014.2 3.3 72
2017-10-16 11:00:00 17.6 31 Oeste 45 Oeste 0 1013 5.4 72
2017-10-16 10:00:00 17.6 22 Oeste 36 Sudoeste 0 1012.3 5.1 77
2017-10-16 09:00:00 18 23 Oeste 82 Noroeste 0 1010.9 4.4 77
2017-10-16 08:00:00 19.4 41 Oeste 79 Oeste 0 1007.6 1.8 72
2017-10-16 07:00:00 23 26 Oeste 42 Oeste 0 1007.2 1.6 49
2017-10-16 06:00:00 25.1 5 Oeste 31 Sudoeste 0 1006.5 1.7 34
2017-10-16 05:00:00 25.7 11 Oeste 29 Oeste 0 1005.8 0.6 32
2017-10-16 04:00:00 25.2 11 Oeste 27 Sur 0 1005.6 0.1 35
2017-10-16 03:00:00 25.4 21 Sur 40 Sudeste 0 1004.8 -1 32
2017-10-16 02:00:00 24.7 19 Sudeste 29 Sudeste 0 1005.2 -1.2 34
2017-10-16 01:00:00 25.2 22 Sudeste 29 Sudeste 0 1005.5 -1 34
2017-10-16 00:00:00 25.1 19 Sudeste 27 Sudeste 0 1005.8 -0.8 35
2017-10-15 23:00:00 25.2 14 Sudeste 20 Sudeste 0 1006.4 -0.2 34
2017-10-15 22:00:00 26.2 18 Sudeste 24 Sudeste 0 1006.5 -0.1 33
2017-10-15 21:00:00 26.5 16 Sudeste 25 Sudeste 0 1006.6 -0.2 34
2017-10-15 20:00:00 27.7 18 Sudeste 23 Sudeste 0 1006.6 -0.6 33
2017-10-15 19:00:00 28.5 14 Sudeste 23 Sudeste 0 1006.6 -1.3 35
2017-10-15 18:00:00 29.6 10 Sudeste 26 Sur 0 1006.8 -1.7 30
2017-10-15 17:00:00 27.8 6 Sudeste 16 Sudeste 0 1007.2 -1.9 37
2017-10-15 16:00:00 28.4 6 Nordeste 12 Este 0 1007.9 -1.8 38
2017-10-15 15:00:00 25.9 4 Sur 23 Este 0 1008.5 -1.4 47
2017-10-15 14:00:00 26.8 15 Este 28 Este 0 1009.1 -1 32
2017-10-15 13:00:00 24.8 14 Este 20 Nordeste 0 1009.7 -0.4 38
2017-10-15 12:00:00 25.6 6 Sur 27 Sur 0 1009.9 0.3 37
2017-10-15 11:00:00 26.6 17 Sudeste 27 Sudeste 0 1010.1 1 29
2017-10-15 10:00:00 24 9 Nordeste 20 Nordeste 0 1010.1 0.4 38
2017-10-15 09:00:00 27.7 10 Sudoeste 48 Sur 0 1009.6 -0.2 29
2017-10-15 08:00:00 28.2 25 Sur 44 Sur 0 1009.1 -0.9 23
2017-10-15 07:00:00 23.2 5 Sudeste 20 Sudeste 0 1009.7 -0.7 38
2017-10-15 06:00:00 23.1 12 Sudeste 22 Sudeste 0 1009.8 -0.9 38
2017-10-15 05:00:00 19.3 11 Sudeste 22 Sudeste 0 1010 -1 55
2017-10-15 04:00:00 18.9 13 Sur 21 Sudeste 0 1010.4 -0.9 58
2017-10-15 03:00:00 19 17 Sudeste 25 Sudeste 0 1010.7 -0.6 58
2017-10-15 02:00:00 18.8 12 Sudeste 22 Sudeste 0 1011 -0.4 60
2017-10-15 01:00:00 18.8 17 Sudeste 26 Sudeste 0 1011.3 -0.4 61
2017-10-15 00:00:00 19.5 22 Sudeste 33 Sudeste 0 1011.3 -0.6 60
2017-10-14 23:00:00 19.1 9 Sudeste 27 Sudeste 0 1011.4 -0.8 64
2017-10-14 22:00:00 19.9 13 Sudeste 27 Sudeste 0 1011.7 -0.5 63
2017-10-14 21:00:00 19.3 18 Sudeste 24 Sudeste 0 1011.9 -0.2 72
2017-10-14 20:00:00 17.9 8 Sudeste 14 Este 0 1012.2 -0.1 84
2017-10-14 19:00:00 18.5 9 Este 23 Este 0 1012.2 -0.5 82
2017-10-14 18:00:00 18.8 13 Este 21 Este 0 1012.1 -0.9 80
2017-10-14 17:00:00 19.2 12 Este 19 Este 0 1012.3 -1.5 77
2017-10-14 16:00:00 19.1 12 Este 18 Este 0 1012.7 -1.7 75
2017-10-14 15:00:00 18.4 8 Este 13 Este 0 1013 -1.9 75
2017-10-14 14:00:00 17.9 5 Nordeste 13 Nordeste 0 1013.8 -1.3 76
2017-10-14 13:00:00 18 7 Este 11 Este 0 1014.4 -0.6 76
2017-10-14 12:00:00 18 4 Oeste 9 Sudeste 0 1014.9 0.1 79
2017-10-14 11:00:00 15.4 8 Sudeste 22 Sudeste 0 1015.1 0.4 84
2017-10-14 10:00:00 13.4 15 Sudeste 21 Sudeste 0 1015 -0.1 88
2017-10-14 09:00:00 12.8 15 Sudeste 22 Sudeste 0 1014.8 -0.4 89
2017-10-14 08:00:00 12.9 14 Sudeste 19 Sudeste 0 1014.7 -0.9 88
2017-10-14 07:00:00 13.7 13 Sudeste 24 Sudeste 0 1015.1 -1.1 87
2017-10-14 06:00:00 14.7 15 Sudeste 24 Sudeste 0 1015.2 -1.3 85
2017-10-14 05:00:00 15.3 12 Sudeste 17 Sudeste 0 1015.6 -1.4 85
2017-10-14 04:00:00 15.2 12 Sudeste 18 Sudeste 0 1016.2 -1.1 85
2017-10-14 03:00:00 15.7 13 Sudeste 18 Sudeste 0 1016.5 -1.2 85
2017-10-14 02:00:00 15.8 12 Sudeste 17 Sudeste 0 1017 -0.8 85
2017-10-14 01:00:00 16.6 8 Sudeste 13 Sudeste 0 1017.3 -0.6 84
2017-10-14 00:00:00 16.8 9 Sudeste 13 Sudeste 0 1017.7 -0.1 83
2017-10-13 23:00:00 16.8 9 Sudeste 12 Sudeste 0 1017.8 0.3 85
2017-10-13 22:00:00 16.9 4 Sudeste 8 Sur 0 1017.9 0.6 86
2017-10-13 21:00:00 16.4 3 Sur 5 Noroeste 0 1017.8 0.8 86
2017-10-13 20:00:00 16.9 3 Noroeste 7 Noroeste 0 1017.5 0.4 84
2017-10-13 19:00:00 17.7 3 Norte 10 Nordeste 0 1017.3 0.2 81
2017-10-13 18:00:00 19 5 Noroeste 12 Noroeste 0 1017 -0.4 78
2017-10-13 17:00:00 19.6 5 Oeste 11 Oeste 0 1017.1 -0.5 77
2017-10-13 16:00:00 18.7 10 Noroeste 19 Oeste 0 1017.1 -0.7 80
2017-10-13 15:00:00 18.9 12 Oeste 22 Oeste 0 1017.4 -0.3 80
2017-10-13 14:00:00 18.7 13 Oeste 23 Oeste 0 1017.6 0.4 80
2017-10-13 13:00:00 18.9 14 Oeste 24 Oeste 0 1017.8 1.1 79
2017-10-13 12:00:00 18.5 11 Oeste 18 Sudoeste 0 1017.7 1.7 78
2017-10-13 11:00:00 17.3 13 Sudoeste 19 Sudoeste 0 1017.2 1.6 82
2017-10-13 10:00:00 14.2 14 Sudoeste 21 Sudoeste 0 1016.7 1.1 84
2017-10-13 09:00:00 13.4 14 Sur 23 Sudoeste 0 1016 0.2 85
2017-10-13 08:00:00 14.9 15 Sudoeste 26 Sudoeste 0 1015.6 0 83
2017-10-13 07:00:00 15.7 17 Sudoeste 23 Oeste 0 1015.6 0.2 85
2017-10-13 06:00:00 13 13 Sudeste 18 Sudeste 0 1015.8 0.6 83
2017-10-13 05:00:00 15.1 9 Oeste 18 Noroeste 0 1015.6 0.7 87
2017-10-13 04:00:00 16 9 Oeste 13 Sudoeste 0 1015.4 0.2 87
2017-10-13 03:00:00 14.2 4 Sudoeste 17 Sudeste 0 1015.2 -0.3 85
2017-10-13 02:00:00 14 13 Sudeste 18 Sudeste 0 1014.9 -0.7 84
2017-10-13 01:00:00 14.1 7 Sur 19 Sudoeste 0 1015.2 -0.3 86
2017-10-13 00:00:00 16.5 16 Sudoeste 23 Sudoeste 0 1015.5 0.3 87
2017-10-12 23:00:00 16.4 12 Oeste 19 Oeste 0 1015.6 0.5 87
2017-10-12 22:00:00 16.2 6 Sudoeste 12 Sur 0 1015.5 0.5 87
2017-10-12 21:00:00 16.6 5 Sur 8 Sur 0 1015.2 0.2 85
2017-10-12 20:00:00 17.6 5 Este 17 Este 0 1015.1 0.1 83
2017-10-12 19:00:00 18.3 6 Este 12 Este 0 1015 -0.3 79
2017-10-12 18:00:00 19 5 Este 18 Este 0 1015 -0.9 76
2017-10-12 17:00:00 18.9 9 Este 18 Este 0 1015 -1.3 76
2017-10-12 16:00:00 18.9 10 Este 17 Este 0 1015.3 -1.6 74
2017-10-12 15:00:00 18.3 5 Este 13 Nordeste 0 1015.9 -0.9 74
2017-10-12 14:00:00 18.2 6 Este 10 Este 0 1016.3 -0.5 74
2017-10-12 13:00:00 18 3 Norte 14 Noroeste 0 1016.9 0.4 74
2017-10-12 12:00:00 18.9 5 Oeste 17 Sudeste 0 1016.8 0.8 73
2017-10-12 11:00:00 16 12 Sur 22 Sudeste 0 1016.8 0.7 77
2017-10-12 10:00:00 13.8 13 Sudeste 27 Sudeste 0 1016.5 0.5 82
2017-10-12 09:00:00 12.5 22 Sudeste 31 Sudeste 0 1016 0 85
2017-10-12 08:00:00 12.6 21 Sudeste 30 Sudeste 0 1016.1 -0.1 85
2017-10-12 07:00:00 12.7 22 Sudeste 30 Sudeste 0 1016 -0.2 85
2017-10-12 06:00:00 12.8 19 Sudeste 27 Sudeste 0 1016 -0.4 86
2017-10-12 05:00:00 13.2 18 Sudeste 25 Sudeste 0 1016.2 -0.2 85
2017-10-12 04:00:00 13.4 20 Sudeste 26 Sudeste 0 1016.2 -0.1 85
2017-10-12 03:00:00 13.6 19 Sudeste 25 Sudeste 0 1016.4 0 86
2017-10-12 02:00:00 14 18 Sudeste 23 Sudeste 0 1016.4 0 86
2017-10-12 01:00:00 14.3 17 Sudeste 22 Sudeste 0 1016.3 0.1 86
2017-10-12 00:00:00 14.5 17 Sudeste 19 Sudeste 0 1016.4 0.6 86
2017-10-11 23:00:00 15.3 15 Sudeste 20 Sudeste 0 1016.4 0.9 84
2017-10-11 22:00:00 15.8 14 Sudeste 18 Sudeste 0 1016.2 1.1 84
2017-10-11 21:00:00 16.1 13 Sudeste 16 Sudeste 0 1015.8 1.4 83
2017-10-11 20:00:00 17.8 4 Sudoeste 8 Sur 0 1015.5 1.5 77
2017-10-11 19:00:00 19.3 2 Sudoeste 9 Oeste 0 1015.1 1.2 72
2017-10-11 18:00:00 20.8 5 Oeste 13 Sudoeste 0 1014.4 0.8 67
2017-10-11 17:00:00 20.9 4 Oeste 12 Oeste 0 1014 0.4 64
2017-10-11 16:00:00 21.6 4 Oeste 11 Oeste 0 1013.9 0.2 56
2017-10-11 15:00:00 21.5 6 Oeste 10 Oeste 0 1013.6 0.2 52
2017-10-11 14:00:00 21.5 4 Oeste 8 Noroeste 0 1013.6 0.6 51
2017-10-11 13:00:00 20.4 3 Noroeste 14 Oeste 0 1013.7 1.3 61
2017-10-11 12:00:00 19.1 9 Sudoeste -- -- 0 1013.4 1.7 65
2017-10-11 11:00:00 17.6 9 Sudoeste 19 Sudoeste 0 1013 1.8 71
2017-10-11 10:00:00 13.6 12 Sur 21 Sur 0 1012.4 1.5 77
2017-10-11 09:00:00 11.9 15 Sur 20 Sudoeste 0 1011.7 1.3 79
2017-10-11 08:00:00 14.3 13 Sudoeste 19 Sudoeste 0 1011.2 1.4 79
2017-10-11 07:00:00 16.2 15 Sudoeste 27 Oeste 0 1010.9 1.3 79
2017-10-11 06:00:00 15.5 21 Sudoeste 30 Sudoeste 0 1010.4 0.1 71
2017-10-11 05:00:00 14.3 15 Sur 29 Sudeste 0 1009.8 -0.7 58
2017-10-11 04:00:00 14.6 21 Sudeste 27 Sudeste 0 1009.6 -1.1 60
2017-10-11 03:00:00 13.5 17 Sudeste 22 Sudeste 0 1010.3 -0.8 73
2017-10-11 02:00:00 13.8 17 Sur 27 Sudeste 0 1010.5 -0.9 77
2017-10-11 01:00:00 14.7 19 Sur 29 Sudeste 0 1010.7 -0.6 77
2017-10-11 00:00:00 14.8 19 Sudeste 30 Sur 0 1011.1 0 83
2017-10-10 23:00:00 15.1 15 Sudeste 19 Sudeste 0 1011.4 0.4 85
2017-10-10 22:00:00 16.5 11 Sudoeste 16 Sudoeste 0 1011.3 0.4 84
2017-10-10 21:00:00 16.5 8 Sudoeste 10 Sudoeste 0 1011.1 0.1 85
2017-10-10 20:00:00 16.5 8 Este 19 Este 0 1011 -0.5 84
2017-10-10 19:00:00 17.1 10 Este 31 Este 0 1010.9 -0.9 82
2017-10-10 18:00:00 17.4 14 Este 29 Este 0 1011 -1.1 82
2017-10-10 17:00:00 18.1 13 Nordeste 25 Este 0 1011.5 -1.2 78
2017-10-10 16:00:00 18.6 11 Este 18 Nordeste 0 1011.8 -1.4 75
2017-10-10 15:00:00 18.2 3 Nordeste 9 Norte 0 1012.1 -1.5 71
2017-10-10 14:00:00 18.5 4 Oeste 9 Oeste 0 1012.7 -1.3 72
2017-10-10 13:00:00 17.1 5 Nordeste 9 Nordeste 0 1013.2 -0.5 72
2017-10-10 12:00:00 17.1 3 Norte 13 Sudeste 0 1013.6 0.2 70
2017-10-10 11:00:00 14.7 12 Sudeste 22 Sudeste 0 1014 0.6 71
2017-10-10 10:00:00 12.3 19 Sudeste 30 Sudeste 0 1013.7 0.5 79
2017-10-10 09:00:00 10.8 22 Sudeste 30 Sudeste 0 1013.4 0.4 84
2017-10-10 08:00:00 11 18 Sudeste 26 Sudeste 0 1013.4 0.5 85
2017-10-10 07:00:00 10.9 19 Sudeste 24 Sudeste 0 1013.2 0 88
2017-10-10 06:00:00 10.7 17 Sudeste 21 Sur 0 1013 -0.4 89
2017-10-10 05:00:00 10.9 17 Sudeste 20 Sudeste 0 1012.9 -0.7 90
2017-10-10 04:00:00 11.4 14 Sur 19 Sur 0 1013.2 -0.4 90
2017-10-10 03:00:00 11.6 14 Sudeste 19 Sudeste 0 1013.4 -0.4 90
2017-10-10 02:00:00 12.2 10 Sur 13 Sur 0 1013.6 -0.2 90
2017-10-10 01:00:00 12.5 7 Sur 15 Sur 0 1013.6 -0.1 89
2017-10-10 00:00:00 13 10 Sur 13 Sur 0 1013.8 -0.1 89
2017-10-09 23:00:00 13.5 10 Sur 17 Sudeste 0 1013.8 0.1 88
2017-10-09 22:00:00 14.4 9 Sudeste 20 Sudeste 0 1013.7 0.2 85
2017-10-09 21:00:00 15.7 13 Este 26 Nordeste 0 1013.9 0.2 84
2017-10-09 20:00:00 16.1 14 Nordeste 36 Nordeste 0 1013.7 0 85
2017-10-09 19:00:00 16.7 20 Nordeste 35 Nordeste 0 1013.5 -0.4 84
2017-10-09 18:00:00 17.3 21 Nordeste 36 Nordeste 0 1013.7 -0.4 81
2017-10-09 17:00:00 17.9 15 Nordeste 37 Nordeste 0 1013.7 -0.9 78
2017-10-09 16:00:00 17.9 19 Nordeste 40 Nordeste 0 1013.9 -1.1 76
2017-10-09 15:00:00 18 17 Nordeste 34 Nordeste 0 1014.1 -1 75
2017-10-09 14:00:00 17.7 14 Este 24 Nordeste 0 1014.6 -0.7 72
2017-10-09 13:00:00 17.7 3 Noroeste 9 Este 0 1015 0 72
2017-10-09 12:00:00 17.1 3 Nordeste 14 Sur 0 1015.1 0.6 72
2017-10-09 11:00:00 14.4 9 Sur 19 Sur 0 1015.3 1.2 74
2017-10-09 10:00:00 11.7 14 Sudeste 21 Sudeste 0 1015 1.1 82
2017-10-09 09:00:00 9.6 18 Sudeste 23 Sur 0 1014.5 0.5 86
2017-10-09 08:00:00 10 18 Sudeste 23 Sudeste 0 1014.1 -0.1 85
2017-10-09 07:00:00 10.3 18 Sudeste 24 Sudeste 0 1013.9 -0.5 86
2017-10-09 06:00:00 10.3 19 Sudeste 22 Sudeste 0 1014 -0.7 87
2017-10-09 05:00:00 10.9 18 Sudeste 24 Sudeste 0 1014.2 -0.5 87
2017-10-09 04:00:00 11.2 15 Sudeste 19 Sudeste 0 1014.4 -0.7 88
2017-10-09 03:00:00 11.3 14 Sudeste 23 Sudeste 0 1014.7 -0.5 87
2017-10-09 02:00:00 12.1 15 Sudeste 22 Sudeste 0 1014.7 -0.5 86
2017-10-09 01:00:00 12.5 11 Sudeste 17 Sudeste 0 1015.1 0.1 86
2017-10-09 00:00:00 13.9 8 Sudeste 23 Este 0 1015.2 0.4 83
2017-10-08 23:00:00 14.7 8 Este 21 Este 0 1015.2 0.8 83
2017-10-08 22:00:00 15.3 10 Este 34 Nordeste 0 1015 0.8 83
2017-10-08 21:00:00 15.9 21 Este 35 Este 0 1014.8 0.8 85
2017-10-08 20:00:00 16.2 18 Nordeste 41 Nordeste 0 1014.4 0.2 85
2017-10-08 19:00:00 16.6 21 Nordeste 41 Nordeste 0 1014.2 -0.1 82
2017-10-08 18:00:00 17.2 24 Nordeste 46 Nordeste 0 1014 -0.6 79
2017-10-08 17:00:00 17.6 24 Nordeste 44 Nordeste 0 1014.2 -0.8 77
2017-10-08 16:00:00 17.7 22 Nordeste 43 Nordeste 0 1014.3 -0.8 77
2017-10-08 15:00:00 17.7 21 Nordeste 39 Norte 0 1014.6 -0.8 76
2017-10-08 14:00:00 17.8 15 Este 25 Este 0 1015 -0.1 74
2017-10-08 13:00:00 17.4 5 Nordeste 16 Este 0 1015.1 0.4 71
2017-10-08 12:00:00 17.1 5 Oeste 11 Sur 0 1015.4 0.9 71
2017-10-08 11:00:00 14.7 8 Sur 17 Sudeste 0 1015.1 0.9 73
2017-10-08 10:00:00 11.7 14 Sudeste 22 Sudeste 0 1014.7 0.4 77
2017-10-08 09:00:00 9.4 15 Sudeste 21 Sudeste 0 1014.5 0.5 83
2017-10-08 08:00:00 9.5 17 Sudeste 22 Sudeste 0 1014.2 0 85
2017-10-08 07:00:00 9.9 18 Sudeste 22 Sudeste 0 1014.3 -0.2 84
2017-10-08 06:00:00 9.9 17 Sudeste 20 Sudeste 0 1014 -0.7 86
2017-10-08 05:00:00 10.2 16 Sudeste 20 Sudeste 0 1014.2 -0.4 87
2017-10-08 04:00:00 10.5 17 Sudeste 21 Sur 0 1014.5 -0.5 86
2017-10-08 03:00:00 11.5 14 Sudeste 22 Sudeste 0 1014.7 -0.3 85
2017-10-08 02:00:00 12 14 Sudeste 24 Sudeste 0 1014.6 -0.2 85
2017-10-08 01:00:00 12.5 14 Sudeste 21 Sudeste 0 1015 0.4 86
2017-10-08 00:00:00 12.7 12 Sudeste 17 Sudeste 0 1015 0.6 87
2017-10-07 23:00:00 13.4 8 Sudeste 19 Este 0 1014.8 0.9 84
2017-10-07 22:00:00 15.2 7 Este 31 Nordeste 0 1014.6 1 80
2017-10-07 21:00:00 15.7 17 Este 37 Este 0 1014.4 1 80
2017-10-07 20:00:00 16.2 18 Nordeste 44 Nordeste 0 1013.9 0.4 79
2017-10-07 19:00:00 16.6 23 Nordeste 48 Nordeste 0 1013.6 -0.5 79
2017-10-07 18:00:00 17.1 24 Nordeste 53 Nordeste 0 1013.4 -1.4 76
2017-10-07 17:00:00 17.3 23 Nordeste 51 Nordeste 0 1013.5 -1.9 74
2017-10-07 16:00:00 17.5 26 Nordeste 55 Nordeste 0 1014.1 -1.8 72
2017-10-07 15:00:00 17.5 28 Nordeste 50 Nordeste 0 1014.8 -1.3 70
2017-10-07 14:00:00 17.5 23 Nordeste 43 Nordeste 0 1015.4 -0.7 69
2017-10-07 13:00:00 17.1 19 Nordeste 42 Nordeste 0 1015.9 -0.4 72
2017-10-07 12:00:00 17 16 Este 35 Nordeste 0 1016.1 -0.2 72
2017-10-07 11:00:00 16.7 10 Este 20 Este 0 1016.1 -0.3 73
2017-10-07 10:00:00 15.5 12 Este 28 Sudeste 0 1016.3 -0.2 74
2017-10-07 09:00:00 14.1 10 Este 22 Este 0 1016.3 -0.3 81
2017-10-07 08:00:00 13.6 12 Sudeste 28 Este 0 1016.4 -0.2 85
2017-10-07 07:00:00 14.9 14 Este 39 Nordeste 0 1016.5 -0.5 84
2017-10-07 06:00:00 14.5 13 Este 37 Este 0 1016.6 -0.8 85
2017-10-07 05:00:00 14.7 17 Este 32 Este 0 1016.6 -1 84
2017-10-07 04:00:00 14.9 14 Este 32 Este 0 1017 -1 85
2017-10-07 03:00:00 15.3 18 Este 32 Este 0 1017.4 -0.8 84
2017-10-07 02:00:00 15.7 16 Este 42 Nordeste 0 1017.6 -0.4 82
2017-10-07 01:00:00 16.1 22 Este 47 Este 0 1018 0.2 83
2017-10-07 00:00:00 16.4 23 Nordeste 43 Este 0 1018.2 0.6 83
2017-10-06 23:00:00 16.7 21 Nordeste 47 Nordeste 0 1018 0.9 83
2017-10-06 22:00:00 16.9 21 Nordeste 50 Nordeste 0 1017.8 0.6 84
2017-10-06 21:00:00 17 21 Nordeste 53 Nordeste 0 1017.6 0.2 84
2017-10-06 20:00:00 17.1 26 Nordeste 56 Nordeste 0 1017.1 -0.6 84
2017-10-06 19:00:00 17.6 28 Nordeste 57 Nordeste 0 1017.2 -0.4 82
2017-10-06 18:00:00 17.4 23 Nordeste 51 Nordeste 0 1017.4 -0.3 82
2017-10-06 17:00:00 18 27 Nordeste 60 Nordeste 0 1017.7 -0.5 82
2017-10-06 16:00:00 19 23 Nordeste 59 Nordeste 0 1017.6 -1.2 81
2017-10-06 15:00:00 19.2 17 Nordeste 52 Nordeste 0 1017.7 -1.2 75
2017-10-06 14:00:00 18.8 23 Nordeste 45 Nordeste 0 1018.2 -0.2 78
2017-10-06 13:00:00 18.5 24 Nordeste 48 Nordeste 0 1018.8 0.8 79
2017-10-06 12:00:00 18.2 21 Nordeste 47 Nordeste 0 1018.9 1.1 81
2017-10-06 11:00:00 17.9 19 Nordeste 38 Norte 0 1018.4 0.7 82
2017-10-06 10:00:00 17.1 18 Este 35 Nordeste 0 1018 0.5 86
2017-10-06 09:00:00 16.6 16 Este 35 Nordeste 0 1017.8 0.5 87
2017-10-06 08:00:00 16.6 17 Nordeste 39 Nordeste 0 1017.7 0.3 87
2017-10-06 07:00:00 16.8 15 Nordeste 36 Nordeste 0 1017.5 -0.1 87
2017-10-06 06:00:00 16.9 16 Nordeste 34 Este 0 1017.3 -0.8 87
2017-10-06 05:00:00 17 17 Nordeste 39 Nordeste 0 1017.4 -0.7 86
2017-10-06 04:00:00 17.1 21 Este 49 Nordeste 0 1017.6 -0.6 86
2017-10-06 03:00:00 17.1 23 Nordeste 51 Nordeste 0 1018.1 0 85
2017-10-06 02:00:00 17.2 23 Nordeste 54 Nordeste 0 1018.1 -0.1 85
2017-10-06 01:00:00 17.3 24 Nordeste 51 Nordeste 0 1018.2 0.3 86
2017-10-06 00:00:00 17.4 19 Nordeste 44 Nordeste 0 1018.1 0.4 87
2017-10-05 23:00:00 17.4 18 Nordeste 40 Nordeste 0 1018.2 0.7 88
2017-10-05 22:00:00 17.4 17 Nordeste 46 Nordeste 0 1017.9 0.3 88
2017-10-05 21:00:00 17.5 18 Nordeste 42 Nordeste 0 1017.7 0.1 88
2017-10-05 20:00:00 17.5 17 Nordeste 47 Nordeste 0 1017.5 -0.2 88
2017-10-05 19:00:00 17.3 18 Nordeste 42 Nordeste 0 1017.6 0.1 90
2017-10-05 18:00:00 17.3 19 Este 38 Este 0 1017.6 0 92
2017-10-05 17:00:00 17.4 19 Nordeste 44 Nordeste 0 1017.7 0 92
2017-10-05 16:00:00 17.7 17 Nordeste 37 Nordeste 0 1017.5 -0.2 92
2017-10-05 15:00:00 17.9 16 Nordeste 35 Nordeste 0 1017.6 -0.2 92
2017-10-05 14:00:00 17.8 16 Nordeste 35 Nordeste 0 1017.7 0.5 92
2017-10-05 13:00:00 17.6 18 Nordeste 38 Nordeste 0 1017.7 0.9 92
2017-10-05 12:00:00 17.5 18 Nordeste 41 Nordeste 0 1017.8 1.5 93
2017-10-05 11:00:00 17.5 16 Nordeste 37 Nordeste 0.2 1017.2 1.1 93
2017-10-05 10:00:00 17.4 16 Nordeste 34 Nordeste 0 1016.8 1.2 93
2017-10-05 09:00:00 17.5 17 Este 36 Este 0.2 1016.3 0.9 93
2017-10-05 08:00:00 17.5 16 Nordeste 34 Nordeste 0.2 1016.1 0.8 92
2017-10-05 07:00:00 17.6 15 Este 34 Nordeste 0.2 1015.6 0.2 92
2017-10-05 06:00:00 17.7 15 Nordeste 34 Este 0 1015.4 -0.1 92
2017-10-05 05:00:00 18 12 Nordeste 28 Este 0 1015.3 -0.5 91
2017-10-05 04:00:00 18.1 15 Nordeste 33 Nordeste 0 1015.4 -0.3 90
2017-10-05 03:00:00 18.2 17 Este 36 Este 0 1015.5 -0.2 89
2017-10-05 02:00:00 18.5 18 Nordeste 38 Nordeste 0 1015.8 0.2 89
2017-10-05 01:00:00 18.5 14 Nordeste 32 Nordeste 0 1015.7 0.4 89
2017-10-05 00:00:00 18.4 17 Este 34 Este 0 1015.7 0.7 89
2017-10-04 23:00:00 18.5 23 Este 41 Nordeste 0 1015.6 0.8 89
2017-10-04 22:00:00 18.4 23 Este 46 Nordeste 0 1015.3 0.8 89
2017-10-04 21:00:00 18.5 21 Nordeste 48 Nordeste 0 1015 0.6 89
2017-10-04 20:00:00 18.5 23 Nordeste 53 Nordeste 0 1014.8 0.5 89
2017-10-04 19:00:00 18.7 27 Nordeste 54 Nordeste 0 1014.5 0.1 88
2017-10-04 18:00:00 19.1 22 Nordeste 53 Nordeste 0 1014.4 -0.4 87
2017-10-04 17:00:00 19.3 27 Nordeste 59 Nordeste 0 1014.3 -0.9 87
2017-10-04 16:00:00 19.5 20 Nordeste 45 Nordeste 0 1014.4 -0.8 86
2017-10-04 15:00:00 19.8 19 Nordeste 39 Nordeste 0 1014.8 -0.5 84
2017-10-04 14:00:00 19.9 16 Nordeste 44 Norte 0 1015.2 -0.2 84
2017-10-04 13:00:00 19.9 17 Nordeste 41 Nordeste 0 1015.2 0.1 84
2017-10-04 12:00:00 19.4 18 Nordeste 37 Nordeste 0 1015.3 0.7 85
2017-10-04 11:00:00 19.1 14 Nordeste 32 Nordeste 0 1015.4 1.1 88
2017-10-04 10:00:00 18.9 14 Nordeste 32 Nordeste 0 1015.1 1.1 89
2017-10-04 09:00:00 18.7 18 Nordeste 37 Este 0 1014.6 1 89
2017-10-04 08:00:00 18.7 19 Nordeste 39 Nordeste 0 1014.3 0.5 89
2017-10-04 07:00:00 18.7 18 Este 39 Nordeste 0 1014 -0.1 89
2017-10-04 06:00:00 18.7 20 Nordeste 48 Nordeste 0 1013.6 -0.9 89
2017-10-04 05:00:00 18.7 21 Nordeste 47 Nordeste 0 1013.8 -1.3 89
2017-10-04 04:00:00 18.7 23 Nordeste 45 Nordeste 0 1014.1 -1.3 89
2017-10-04 03:00:00 18.7 23 Nordeste 46 Nordeste 0 1014.5 -0.9 90
2017-10-04 02:00:00 19 21 Nordeste 41 Nordeste 0 1015.1 -0.3 88
2017-10-04 01:00:00 18.9 16 Nordeste 39 Nordeste 0 1015.4 -0.2 87
2017-10-04 00:00:00 19 21 Nordeste 47 Nordeste 0 1015.4 0 88
2017-10-03 23:00:00 18.8 19 Nordeste 37 Nordeste 0 1015.4 0.3 89
2017-10-03 22:00:00 18.8 19 Este 32 Este 0 1015.6 0.5 90
2017-10-03 21:00:00 18.8 10 Este 35 Nordeste 0 1015.4 0.4 90
2017-10-03 20:00:00 18.8 16 Nordeste 40 Nordeste 0 1015.1 0 89
2017-10-03 19:00:00 18.9 17 Nordeste 44 Nordeste 0 1015.1 -0.3 88
2017-10-03 18:00:00 19.1 21 Nordeste 42 Nordeste 0 1015 -0.7 87
2017-10-03 17:00:00 19.7 15 Nordeste 33 Este 0 1015.1 -1.4 84
2017-10-03 16:00:00 19.6 14 Nordeste 32 Nordeste 0 1015.4 -1.5 86
2017-10-03 15:00:00 19.7 12 Este 30 Este 0 1015.7 -0.7 85
2017-10-03 14:00:00 19.1 10 Nordeste 23 Este 0 1016.5 0 88
2017-10-03 13:00:00 19.1 5 Nordeste 21 Norte 0 1016.9 0.2 89
2017-10-03 12:00:00 19.4 8 Nordeste 19 Nordeste 0 1016.4 0 90
2017-10-03 11:00:00 18.9 3 Noroeste 8 Sudeste 0 1016.5 0.5 92
2017-10-03 10:00:00 18.3 3 Este 8 Este 0.4 1016.7 1.1 92
2017-10-03 09:00:00 18.2 3 Sudoeste 22 Noroeste 0.2 1016.4 0.9 93
2017-10-03 08:00:00 18 14 Noroeste 23 Noroeste 0.6 1016 0.3 93
2017-10-03 07:00:00 18.3 5 Oeste 10 Oeste 1.2 1015.6 -0.4 93
2017-10-03 06:00:00 18.4 5 Oeste 9 Oeste 0.4 1015.5 -0.8 93
2017-10-03 05:00:00 18.3 2 Noroeste 19 Norte 0.4 1015.7 -0.7 93
2017-10-03 04:00:00 18.5 10 Noroeste 22 Noroeste 0.2 1016 -0.7 93
2017-10-03 03:00:00 18.5 19 Noroeste 24 Noroeste 0.4 1016.3 -0.3 92
2017-10-03 02:00:00 18.8 10 Oeste 21 Noroeste 0.2 1016.4 -0.2 92
2017-10-03 01:00:00 18.9 12 Oeste 18 Oeste 0.2 1016.7 -0.2 92
2017-10-03 00:00:00 19 8 Noroeste 11 Noroeste 0.2 1016.6 -0.2 91
2017-10-02 23:00:00 19.2 3 Noroeste 6 Noroeste 0 1016.6 -0.2 89
2017-10-02 22:00:00 19.3 2 Este 9 Sur 0 1016.9 0.1 88
2017-10-02 21:00:00 19.5 3 Sur 6 Oeste 0 1016.8 0.4 87
2017-10-02 20:00:00 19.8 0 Calma 9 Noroeste 0 1016.8 0.4 85
2017-10-02 19:00:00 20.1 3 Noroeste 12 Oeste 0 1016.8 -0.3 84
2017-10-02 18:00:00 20.5 6 Noroeste 14 Noroeste 0 1016.4 -1.1 81
2017-10-02 17:00:00 21.9 4 Nordeste 13 Nordeste 0 1016.4 -1.7 77
2017-10-02 16:00:00 22.5 4 Norte 14 Nordeste 0 1017.1 -1.1 77
2017-10-02 15:00:00 21.8 4 Nordeste 9 Norte 0 1017.5 -1.1 78
2017-10-02 14:00:00 22.6 2 Noroeste 12 Norte 0 1018.1 -0.4 75
2017-10-02 13:00:00 22.8 3 Noroeste 6 Noroeste 0 1018.2 0.1 77
2017-10-02 12:00:00 21.8 3 Oeste 4 Oeste 0 1018.6 0.7 81
2017-10-02 11:00:00 20.6 0 Calma 8 Sudeste 0 1018.5 0.5 84
2017-10-02 10:00:00 19.5 6 Sudeste 12 Sur 0 1018.1 0.2 88
2017-10-02 09:00:00 18.5 8 Sudeste 13 Sudeste 0 1017.9 0 88
2017-10-02 08:00:00 18.7 9 Sudoeste 17 Sudoeste 0 1018 0.4 87
2017-10-02 07:00:00 18.4 10 Oeste 23 Oeste 0 1017.9 0.2 87
2017-10-02 06:00:00 18.3 13 Sudoeste 17 Sudoeste 0 1017.9 0.2 86
2017-10-02 05:00:00 18.3 10 Sudoeste 14 Sudoeste 0 1017.6 -0.1 87
2017-10-02 04:00:00 18.4 8 Sudoeste 14 Oeste 0 1017.7 0 88
2017-10-02 03:00:00 18.6 8 Sudoeste 9 Sudoeste 0 1017.7 -0.2 86
2017-10-02 02:00:00 18.7 7 Sudoeste 12 Sudoeste 0 1017.7 -0.3 85
2017-10-02 01:00:00 18.4 7 Sudoeste 14 Sudoeste 0 1017.7 -0.3 87
2017-10-02 00:00:00 18.3 10 Sur 12 Sudoeste 0.2 1017.9 0.7 88
2017-10-01 23:00:00 18.3 8 Sudoeste 14 Sudoeste 0 1018 1.2 88
2017-10-01 22:00:00 18.4 10 Oeste 25 Oeste 3.2 1018 1.7 87
2017-10-01 21:00:00 19.2 13 Oeste 17 Oeste 0 1017.2 0.9 84
2017-10-01 20:00:00 19.5 9 Oeste 20 Oeste 0 1016.8 0.3 84
2017-10-01 19:00:00 20 12 Oeste 28 Noroeste 0 1016.3 0.1 81
2017-10-01 18:00:00 20.9 15 Oeste 24 Oeste 0 1016.3 -0.3 79
2017-10-01 17:00:00 22 12 Oeste 20 Oeste 0 1016.5 -0.4 76
2017-10-01 16:00:00 22.8 10 Oeste 18 Oeste 0 1016.2 -0.5 75
2017-10-01 15:00:00 22.2 9 Oeste 17 Oeste 0 1016.6 0.2 78
2017-10-01 14:00:00 20.7 7 Oeste 18 Noroeste 0 1016.9 0.5 81
2017-10-01 13:00:00 20.5 12 Oeste 28 Noroeste 0 1016.7 0.7 84
2017-10-01 12:00:00 20.3 9 Sudoeste 22 Oeste 0 1016.4 0.9 77
2017-10-01 11:00:00 19.8 10 Oeste 15 Oeste 0 1016.4 0.8 75
2017-10-01 10:00:00 18.9 4 Sur 20 Sudoeste 0 1016 1.3 76
2017-10-01 09:00:00 19.2 11 Sudoeste 21 Oeste 0 1015.5 0.5 72
2017-10-01 08:00:00 19.3 16 Oeste 31 Oeste 0 1015.6 0.9 74
2017-10-01 07:00:00 19.6 17 Sudoeste 40 Sudoeste 0 1014.7 -0.1 69
2017-10-01 06:00:00 19.2 18 Sudoeste 33 Sudoeste 0 1015 0.1 70
2017-10-01 05:00:00 18.8 17 Sudoeste 30 Sudoeste 0 1014.7 -0.1 71
2017-10-01 04:00:00 19.1 18 Oeste 46 Oeste 0 1014.8 0 71
2017-10-01 03:00:00 19.4 24 Oeste 47 Oeste 0 1014.9 -0.1 70
2017-10-01 02:00:00 18.7 14 Sudoeste 25 Sudoeste 0 1014.8 -0.4 73
2017-10-01 01:00:00 18 9 Sudoeste 15 Oeste 0 1014.8 -0.7 77
2017-10-01 00:00:00 17.7 9 Oeste 17 Sudoeste 0 1015 -0.5 78
2017-09-30 23:00:00 17.1 12 Sur 17 Sur 0 1015.2 -0.1 80
2017-09-30 22:00:00 16.8 13 Sudeste 17 Sudeste 0 1015.5 0.6 80
2017-09-30 21:00:00 17 7 Sur 10 Oeste 0 1015.5 0.1 77
2017-09-30 20:00:00 17.7 6 Oeste 13 Oeste 0 1015.3 0.4 72
2017-09-30 19:00:00 18.4 3 Oeste 11 Oeste 0 1014.9 -0.4 68
2017-09-30 18:00:00 18.4 5 Norte 12 Norte 0 1015.4 0.3 64
2017-09-30 17:00:00 19.3 7 Noroeste 15 Noroeste 0 1014.9 -0.9 66
2017-09-30 16:00:00 19 15 Noroeste 22 Oeste 0 1015.3 -0.7 70
2017-09-30 15:00:00 19.7 10 Oeste 23 Noroeste 0 1015.1 -1.5 74
2017-09-30 14:00:00 19.7 7 Oeste 15 Oeste 0 1015.8 -0.8 75
2017-09-30 13:00:00 18.2 8 Oeste 14 Sudoeste 0 1016 -0.1 80
2017-09-30 12:00:00 16.8 6 Oeste 13 Oeste 0 1016.6 1 86
2017-09-30 11:00:00 15.7 8 Sur 14 Sur 0 1016.6 1.2 89
2017-09-30 10:00:00 14.9 12 Sur 20 Oeste 0 1016.1 0.4 90
2017-09-30 09:00:00 14.7 10 Sudoeste 20 Sudoeste 0.2 1015.6 0.1 91
2017-09-30 08:00:00 14.7 15 Oeste 23 Oeste 0.2 1015.4 0.3 91
2017-09-30 07:00:00 15 6 Oeste 19 Oeste 0.2 1015.7 0.3 91
2017-09-30 06:00:00 14.8 6 Sur 13 Sur 0 1015.5 0 91
2017-09-30 05:00:00 14.9 7 Sudoeste 12 Sur 0 1015.1 -0.9 91
2017-09-30 04:00:00 14.8 6 Sur 8 Este 0 1015.4 -0.8 91
2017-09-30 03:00:00 14.7 5 Sudeste 13 Oeste 0 1015.5 -1 90
2017-09-30 02:00:00 15.1 7 Oeste 13 Oeste 0 1016 -0.6 90
2017-09-30 01:00:00 15.3 5 Sudoeste 17 Oeste 0 1016.2 -0.4 90
2017-09-30 00:00:00 15.3 9 Sudoeste 22 Oeste 0.2 1016.5 0.5 90
2017-09-29 23:00:00 15.1 6 Sur 12 Sur 0 1016.6 0.7 91
2017-09-29 22:00:00 15 8 Norte 19 Oeste 0.6 1016.6 0.9 91
2017-09-29 21:00:00 15.5 6 Oeste 20 Noroeste 0.6 1016 0.3 91
2017-09-29 20:00:00 15.6 10 Noroeste 30 Noroeste 0.8 1015.9 0.6 92
2017-09-29 19:00:00 16.4 10 Noroeste 23 Norte 0.2 1015.7 1 91
2017-09-29 18:00:00 16.6 14 Noroeste 31 Noroeste 0 1015.7 1.7 90
2017-09-29 17:00:00 17.3 19 Norte 45 Noroeste 0 1015.3 1.1 86
2017-09-29 16:00:00 18.3 28 Noroeste 41 Noroeste 0 1014.7 0.1 86
2017-09-29 15:00:00 19.4 27 Noroeste 39 Noroeste 0 1014 -0.7 81
2017-09-29 14:00:00 20.9 3 Oeste 9 Oeste 0 1014.2 -0.7 74
2017-09-29 13:00:00 19.6 5 Oeste 12 Oeste 0 1014.6 0.3 76
2017-09-29 12:00:00 19.2 8 Oeste 24 Oeste 0 1014.7 1 80
2017-09-29 11:00:00 18.6 13 Oeste 21 Oeste 0 1014.9 1.9 82
2017-09-29 10:00:00 18.7 9 Sudoeste 18 Sudoeste 0 1014.3 1.2 79
2017-09-29 09:00:00 16.6 9 Sudeste 23 Sudeste 0 1013.7 1 81
2017-09-29 08:00:00 16.1 18 Sudeste 28 Sudeste 0 1013 0.6 83
2017-09-29 07:00:00 15.9 18 Sudeste 22 Sudeste 0 1013.1 0.4 86
2017-09-29 06:00:00 16.1 14 Sur 22 Sudeste 0 1012.7 -0.1 87
2017-09-29 05:00:00 16.5 16 Sur 22 Sudeste 0 1012.4 -0.7 87
2017-09-29 04:00:00 17 18 Sudeste 23 Sudeste 0 1012.7 -0.7 86
2017-09-29 03:00:00 17.2 16 Sur 21 Sudeste 0 1012.8 -0.7 85
2017-09-29 02:00:00 17.4 13 Sudeste 17 Sudeste 0 1013.1 -0.4 85
2017-09-29 01:00:00 17.7 11 Sur 17 Sur 0 1013.4 0.2 84
2017-09-29 00:00:00 18.7 10 Sudoeste 15 Sudoeste 0 1013.5 0.7 77
2017-09-28 23:00:00 18.9 12 Sudoeste 16 Sudoeste 0 1013.5 1 78
2017-09-28 22:00:00 20 10 Este 23 Este 0 1013.2 0.8 72
2017-09-28 21:00:00 20.2 13 Este 29 Este 0 1012.8 0.5 72
2017-09-28 20:00:00 20.5 15 Este 29 Este 0 1012.5 0.2 73
2017-09-28 19:00:00 21.2 12 Este 24 Este 0 1012.4 0 71
2017-09-28 18:00:00 21.5 13 Este 24 Nordeste 0 1012.3 -0.4 70
2017-09-28 17:00:00 22.4 9 Este 18 Este 0 1012.3 -0.7 67
2017-09-28 16:00:00 22.5 7 Este 14 Este 0 1012.4 -0.8 66
2017-09-28 15:00:00 22.4 7 Este 13 Sudeste 0 1012.7 -0.5 66
2017-09-28 14:00:00 22.4 6 Este 11 Este 0 1013 -0.2 65
2017-09-28 13:00:00 21.8 6 Este 15 Nordeste 0 1013.2 -0.1 69
2017-09-28 12:00:00 21.9 10 Este 15 Sudeste 0 1013.2 0.4 66
2017-09-28 11:00:00 21 10 Sudeste 15 Sur 0 1013.2 1 71
2017-09-28 10:00:00 18.1 13 Sur 22 Sudeste 0 1013.3 1.3 77
2017-09-28 09:00:00 16.1 15 Sur 22 Sudeste 0 1012.8 0.8 83
2017-09-28 08:00:00 16.2 18 Sudeste 24 Sudeste 0 1012.2 0.2 81
2017-09-28 07:00:00 16.3 17 Sudeste 24 Sudeste 0 1012 -0.5 82
2017-09-28 06:00:00 16.3 17 Sudeste 21 Sudeste 0 1012 -0.5 82
2017-09-28 05:00:00 16.6 18 Sudeste 22 Sudeste 0 1012 -0.6 82
2017-09-28 04:00:00 16.4 15 Sur 20 Sudeste 0 1012.5 0.1 83
2017-09-28 03:00:00 16.8 13 Sudeste 19 Sudeste 0 1012.5 0.1 83
2017-09-28 02:00:00 18.2 10 Sudoeste 21 Sur 0 1012.6 0.3 80
2017-09-28 01:00:00 17.6 12 Sur 20 Sur 0 1012.4 0.2 82
2017-09-28 00:00:00 18.3 12 Sur 15 Sudeste 0 1012.4 0.6 80
2017-09-27 23:00:00 19 9 Sur 13 Sur 0 1012.3 1.2 78
2017-09-27 22:00:00 20.6 4 Nordeste 9 Este 0 1012.2 1.7 73
2017-09-27 21:00:00 21.1 3 Sur 15 Este 0 1011.8 1.5 68
2017-09-27 20:00:00 21.5 11 Este 22 Este 0 1011.1 0.8 64
2017-09-27 19:00:00 22.2 13 Este 23 Este 0 1010.5 0.2 60
2017-09-27 18:00:00 22.5 12 Este 23 Este 0 1010.3 0 57
2017-09-27 17:00:00 24 11 Este 20 Este 0 1010.3 -0.1 52
2017-09-27 16:00:00 23.7 13 Este 19 Este 0 1010.3 -0.3 55
2017-09-27 15:00:00 24.6 10 Este 15 Este 0 1010.3 -0.5 49
2017-09-27 14:00:00 24 6 Este 15 Este 0 1010.4 -0.2 52
2017-09-27 13:00:00 23.2 6 Este 12 Este 0 1010.6 -0.2 59
2017-09-27 12:00:00 23.4 8 Sur 24 Sudoeste 0 1010.8 0.3 55
2017-09-27 11:00:00 19.9 14 Sur 24 Sudeste 0 1010.6 0.5 65
2017-09-27 10:00:00 16.9 19 Sudeste 27 Sudeste 0 1010.8 0.8 72
2017-09-27 09:00:00 14.8 19 Sudeste 27 Sur 0 1010.5 0.4 78
2017-09-27 08:00:00 14.4 22 Sudeste 27 Sudeste 0 1010.1 -0.3 80
2017-09-27 07:00:00 14.5 21 Sudeste 26 Sudeste 0 1010 -0.2 82
2017-09-27 06:00:00 14.5 18 Sudeste 25 Sudeste 0 1010.1 0 84
2017-09-27 05:00:00 14.6 13 Sur 19 Sur 0 1010.4 0.2 85
2017-09-27 04:00:00 15.2 15 Sudeste 28 Sur 0 1010.2 -0.7 83
2017-09-27 03:00:00 15.3 18 Sudeste 25 Sudeste 0 1010.1 -1.5 84
2017-09-27 02:00:00 15.6 18 Sudeste 27 Sur 0 1010.2 -2 84
2017-09-27 01:00:00 15.3 17 Sur 24 Sudeste 0 1010.9 -1.3 84
2017-09-27 00:00:00 15.4 18 Sudeste 23 Sudeste 0 1011.6 -0.6 83
2017-09-26 23:00:00 15.5 15 Sudeste 19 Sur 0 1012.2 0.1 84
2017-09-26 22:00:00 15.8 13 Sur 16 Sur 0 1012.2 0.3 84
2017-09-26 21:00:00 17.6 8 Sudeste 21 Nordeste 0 1012.2 0.5 83
2017-09-26 20:00:00 18.5 13 Este 25 Este 0 1012.1 0.1 83
2017-09-26 19:00:00 18.8 14 Nordeste 31 Este 0 1011.9 -0.6 80
2017-09-26 18:00:00 19.2 14 Nordeste 33 Nordeste 0 1011.7 -1.4 77
2017-09-26 17:00:00 19.6 13 Nordeste 34 Nordeste 0 1012 -1.7 75
2017-09-26 16:00:00 19.8 14 Nordeste 29 Nordeste 0 1012.5 -1.5 74
2017-09-26 15:00:00 20 10 Nordeste 23 Nordeste 0 1013.1 -1 74
2017-09-26 14:00:00 19 4 Norte 12 Este 0 1013.7 -0.4 73
2017-09-26 13:00:00 19.4 5 Nordeste 15 Nordeste 0 1014 0 73
2017-09-26 12:00:00 18.3 5 Nordeste 9 Norte 0 1014.1 0 77
2017-09-26 11:00:00 17.3 3 Sudoeste 15 Sur 0 1014.1 0 79
2017-09-26 10:00:00 14.6 12 Sur 20 Sudeste 0 1014 -0.1 86
2017-09-26 09:00:00 12.6 16 Sudeste 24 Sudeste 0 1014.1 -0.3 89
2017-09-26 08:00:00 12.6 18 Sudeste 23 Sudeste 0 1014.1 -0.6 89
2017-09-26 07:00:00 12.6 17 Sudeste 21 Sur 0 1014.1 -1.1 90
2017-09-26 06:00:00 13.1 16 Sudeste 23 Sudeste 0 1014.4 -1.4 89
2017-09-26 05:00:00 13.2 18 Sudeste 28 Sudeste 0 1014.7 -1.2 90
2017-09-26 04:00:00 13.6 17 Sudeste 24 Sudeste 0 1015.2 -0.5 89
2017-09-26 03:00:00 13.4 17 Sudeste 20 Sudeste 0 1015.8 -0.3 89
2017-09-26 02:00:00 14.1 10 Sudeste 18 Sudeste 0 1015.9 -0.4 88
2017-09-26 01:00:00 14.6 12 Sudeste 19 Sudeste 0 1015.7 -0.6 88
2017-09-26 00:00:00 15.2 14 Sudeste 21 Sudeste 0 1016.1 0 88
2017-09-25 23:00:00 15.9 11 Sudeste 15 Sudeste 0 1016.3 0.2 88
2017-09-25 22:00:00 15.7 6 Sudeste 8 Sudeste 0 1016.3 0.1 87
2017-09-25 21:00:00 17.2 4 Este 8 Este 0 1016.1 -0.1 83
2017-09-25 20:00:00 18.3 0 Calma 13 Noroeste 0 1016.1 -0.1 80
2017-09-25 19:00:00 18.9 10 Noroeste 19 Noroeste 0 1016.2 -0.1 77
2017-09-25 18:00:00 19.8 14 Oeste 20 Oeste 0 1016.2 0 76
2017-09-25 17:00:00 19.9 15 Oeste 25 Noroeste 0 1016.2 0.1 75
2017-09-25 16:00:00 19.8 20 Noroeste 35 Oeste 0 1016.3 0.5 74
2017-09-25 15:00:00 19.2 28 Noroeste 37 Noroeste 0 1016.2 0.4 76
2017-09-25 14:00:00 21 20 Oeste 42 Oeste 0 1016.1 0.8 69
2017-09-25 13:00:00 20.8 20 Oeste 41 Oeste 0 1015.8 1.1 66
2017-09-25 12:00:00 20.1 17 Oeste 32 Oeste 0 1015.8 1.4 66
2017-09-25 11:00:00 18.5 19 Oeste 26 Oeste 0 1015.3 1.3 68
2017-09-25 10:00:00 18.3 15 Sudoeste 31 Oeste 0 1014.7 1.1 68
2017-09-25 09:00:00 16.2 8 Sudoeste 25 Sudoeste 0 1014.4 1.2 76
2017-09-25 08:00:00 15.9 13 Sur 24 Sudoeste 0 1014 1.1 75
2017-09-25 07:00:00 15 11 Sur 24 Sudoeste 0 1013.6 0.5 80
2017-09-25 06:00:00 16.9 13 Sudoeste 23 Sudoeste 0 1013.2 -0.2 72
2017-09-25 05:00:00 15.8 12 Sudoeste 28 Oeste 0 1012.9 -0.3 80
2017-09-25 04:00:00 17.7 21 Oeste 38 Sudoeste 0 1013.1 -0.4 72
2017-09-25 03:00:00 17.1 8 Sudoeste 24 Oeste 0 1013.4 -0.3 74
2017-09-25 02:00:00 17 14 Sudoeste 25 Sudoeste 0 1013.2 -0.4 75
2017-09-25 01:00:00 15.8 10 Sur 18 Sudoeste 0 1013.5 0.6 81
2017-09-25 00:00:00 16.3 13 Sur 22 Sudoeste 0.2 1013.7 0.9 83
2017-09-24 23:00:00 16.8 9 Sudoeste 16 Sudoeste 0 1013.6 1.2 85
2017-09-24 22:00:00 17.3 5 Sudoeste 30 Sudoeste 0.4 1012.9 1.1 86
2017-09-24 21:00:00 17.5 10 Oeste 26 Oeste 3.8 1012.8 1.6 85
2017-09-24 20:00:00 18.4 9 Oeste 18 Noroeste 0 1012.4 1.2 83
2017-09-24 19:00:00 19.1 2 Noroeste 10 Sudeste 0 1011.8 0.6 80
2017-09-24 18:00:00 20.1 3 Norte 24 Noroeste 0 1011.2 0.5 78
2017-09-24 17:00:00 20.2 17 Noroeste 24 Noroeste 0 1011.2 0.5 76
2017-09-24 16:00:00 20.4 10 Oeste 15 Oeste 0 1011.2 0.3 78
2017-09-24 15:00:00 20.8 2 Nordeste 12 Este 0 1010.7 -0.2 74
2017-09-24 14:00:00 21.2 8 Este 15 Sudeste 0 1010.7 -0.4 69
2017-09-24 13:00:00 20.6 7 Este 13 Este 0 1010.9 0 71
2017-09-24 12:00:00 20.5 2 Norte 20 Sur 0 1010.9 0.4 69
2017-09-24 11:00:00 17.7 13 Sudeste 22 Sudeste 0 1011.1 0.6 70
2017-09-24 10:00:00 15.4 17 Sudeste 23 Sudeste 0 1010.9 0.6 79
2017-09-24 09:00:00 14.3 15 Sudeste 28 Sudeste 0 1010.5 -0.1 84
2017-09-24 08:00:00 14 19 Sudeste 27 Sudeste 0 1010.5 -0.3 87
2017-09-24 07:00:00 14.4 21 Sudeste 28 Sudeste 0 1010.3 -0.6 88
2017-09-24 06:00:00 14.6 17 Sudeste 23 Sudeste 0 1010.6 -0.9 89
2017-09-24 05:00:00 14.6 14 Sur 18 Sudeste 0 1010.8 -0.6 89
2017-09-24 04:00:00 14.9 14 Sudeste 19 Sudeste 0 1010.9 -0.8 89
2017-09-24 03:00:00 15.2 14 Sudeste 19 Sudeste 0 1011.5 -0.1 89
2017-09-24 02:00:00 15.6 13 Sur 17 Sudeste 0 1011.4 -0.5 87
2017-09-24 01:00:00 16.1 10 Sur 19 Sudeste 0 1011.7 0 87
2017-09-24 00:00:00 17.2 10 Sudeste 14 Este 0 1011.6 0.2 85
2017-09-23 23:00:00 18.2 8 Este 18 Este 0 1011.9 0.5 83
2017-09-23 22:00:00 17.9 9 Este 18 Este 0 1011.7 0.3 83
2017-09-23 21:00:00 18.3 10 Este 17 Este 0 1011.4 0.2 83
2017-09-23 20:00:00 18.4 8 Sudeste 14 Sudeste 0 1011.4 0.9 81
2017-09-23 19:00:00 19.4 3 Sur 13 Oeste 0 1011.4 1.4 78
2017-09-23 18:00:00 19.3 13 Oeste 23 Oeste 0 1011.2 1.5 80
2017-09-23 17:00:00 19.5 14 Noroeste 22 Noroeste 0 1010.5 0.6 79
2017-09-23 16:00:00 20.8 17 Noroeste 24 Noroeste 0 1010 0.1 72
2017-09-23 15:00:00 21.4 5 Noroeste 11 Noroeste 0 1009.7 0 68
2017-09-23 14:00:00 22 3 Oeste 10 Oeste 0 1009.9 0.5 64
2017-09-23 13:00:00 22.9 3 Sudoeste 8 Oeste 0 1009.9 0.8 61
2017-09-23 12:00:00 21.3 6 Sudoeste 9 Sudoeste 0 1009.7 1.5 61
2017-09-23 11:00:00 20.3 0 Calma 6 Sur 0 1009.4 1.4 69
2017-09-23 10:00:00 17.7 4 Sudoeste 15 Sur 0 1009.1 1.2 79
2017-09-23 09:00:00 14.2 14 Sudeste 19 Sudeste 0 1008.2 0 84
2017-09-23 08:00:00 13.4 13 Sudeste 18 Sudeste 0 1008 -0.5 85
2017-09-23 07:00:00 13.7 10 Sudeste 16 Sudeste 0 1007.9 -1.4 85
2017-09-23 06:00:00 14 13 Sudeste 20 Sudeste 0 1008.2 -1.9 85
2017-09-23 05:00:00 14.3 15 Sur 30 Sudeste 0 1008.5 -2.5 83
2017-09-23 04:00:00 14.7 23 Sudeste 34 Sudeste 0 1009.3 -2.5 85
2017-09-23 03:00:00 15.1 18 Sudeste 26 Sudeste 0 1010.1 -2.3 84
2017-09-23 02:00:00 15.7 14 Sudeste 20 Sudeste 0 1011 -1.5 82
2017-09-23 01:00:00 15.5 10 Sudeste 16 Sudeste 0 1011.8 -0.9 82
2017-09-23 00:00:00 15.9 10 Sudeste 26 Este 0 1012.4 -0.1 81